sensor_id;sensor_type;location;lat;lon;timestamp;P1;durP1;ratioP1;P2;durP2;ratioP2
29210;SDS011;16250;49.932;10.980;2022-11-20T00:01:11;1.88;;;1.88;;
29210;SDS011;16250;49.932;10.980;2022-11-20T00:03:38;3.17;;;3.08;;
29210;SDS011;16250;49.932;10.980;2022-11-20T00:06:05;2.00;;;2.00;;
29210;SDS011;16250;49.932;10.980;2022-11-20T00:08:41;2.35;;;2.25;;
29210;SDS011;16250;49.932;10.980;2022-11-20T00:11:08;2.17;;;2.15;;
29210;SDS011;16250;49.932;10.980;2022-11-20T00:13:33;2.10;;;2.10;;
29210;SDS011;16250;49.932;10.980;2022-11-20T00:16:00;2.00;;;2.00;;
29210;SDS011;16250;49.932;10.980;2022-11-20T00:18:26;1.92;;;1.92;;
29210;SDS011;16250;49.932;10.980;2022-11-20T00:20:52;3.75;;;3.65;;
29210;SDS011;16250;49.932;10.980;2022-11-20T00:23:19;2.03;;;2.03;;
29210;SDS011;16250;49.932;10.980;2022-11-20T00:25:44;2.03;;;2.00;;
29210;SDS011;16250;49.932;10.980;2022-11-20T00:28:10;2.10;;;2.10;;
29210;SDS011;16250;49.932;10.980;2022-11-20T00:30:36;1.98;;;1.98;;
29210;SDS011;16250;49.932;10.980;2022-11-20T00:33:02;2.33;;;2.22;;
29210;SDS011;16250;49.932;10.980;2022-11-20T00:35:27;2.92;;;2.83;;
29210;SDS011;16250;49.932;10.980;2022-11-20T00:37:53;8.35;;;6.07;;
29210;SDS011;16250;49.932;10.980;2022-11-20T00:40:18;1.77;;;1.77;;
29210;SDS011;16250;49.932;10.980;2022-11-20T00:42:44;2.60;;;2.50;;
29210;SDS011;16250;49.932;10.980;2022-11-20T00:45:09;2.53;;;2.42;;
29210;SDS011;16250;49.932;10.980;2022-11-20T00:47:35;3.83;;;3.65;;
29210;SDS011;16250;49.932;10.980;2022-11-20T00:50:00;2.53;;;2.42;;
29210;SDS011;16250;49.932;10.980;2022-11-20T00:52:26;1.90;;;1.90;;
29210;SDS011;16250;49.932;10.980;2022-11-20T00:54:51;2.88;;;2.78;;
29210;SDS011;16250;49.932;10.980;2022-11-20T00:57:17;2.45;;;2.35;;
29210;SDS011;16250;49.932;10.980;2022-11-20T00:59:42;2.30;;;2.20;;
29210;SDS011;16250;49.932;10.980;2022-11-20T01:02:08;2.97;;;2.88;;
29210;SDS011;16250;49.932;10.980;2022-11-20T01:04:34;3.67;;;3.38;;
29210;SDS011;16250;49.932;10.980;2022-11-20T01:06:59;3.95;;;3.65;;
29210;SDS011;16250;49.932;10.980;2022-11-20T01:09:25;3.58;;;3.47;;
29210;SDS011;16250;49.932;10.980;2022-11-20T01:11:50;8.10;;;6.82;;
29210;SDS011;16250;49.932;10.980;2022-11-20T01:14:17;3.92;;;3.72;;
29210;SDS011;16250;49.932;10.980;2022-11-20T01:16:45;4.90;;;4.55;;
29210;SDS011;16250;49.932;10.980;2022-11-20T01:19:14;3.47;;;3.30;;
29210;SDS011;16250;49.932;10.980;2022-11-20T01:21:42;2.45;;;2.35;;
29210;SDS011;16250;49.932;10.980;2022-11-20T01:24:13;6.45;;;6.13;;
29210;SDS011;16250;49.932;10.980;2022-11-20T01:26:40;2.15;;;2.13;;
29210;SDS011;16250;49.932;10.980;2022-11-20T01:29:08;2.38;;;2.28;;
29210;SDS011;16250;49.932;10.980;2022-11-20T01:31:42;3.25;;;3.15;;
29210;SDS011;16250;49.932;10.980;2022-11-20T01:34:16;8.48;;;4.47;;
29210;SDS011;16250;49.932;10.980;2022-11-20T01:36:42;5.32;;;4.80;;
29210;SDS011;16250;49.932;10.980;2022-11-20T01:39:13;2.50;;;2.40;;
29210;SDS011;16250;49.932;10.980;2022-11-20T01:41:43;3.17;;;3.07;;
29210;SDS011;16250;49.932;10.980;2022-11-20T01:47:13;11.55;;;10.75;;
29210;SDS011;16250;49.932;10.980;2022-11-20T01:49:52;2.50;;;2.40;;
29210;SDS011;16250;49.932;10.980;2022-11-20T01:52:23;2.25;;;2.15;;
29210;SDS011;16250;49.932;10.980;2022-11-20T01:54:56;2.13;;;2.10;;
29210;SDS011;16250;49.932;10.980;2022-11-20T01:57:26;1.92;;;1.92;;
29210;SDS011;16250;49.932;10.980;2022-11-20T01:59:56;3.13;;;3.03;;
29210;SDS011;16250;49.932;10.980;2022-11-20T02:02:28;2.92;;;2.83;;
29210;SDS011;16250;49.932;10.980;2022-11-20T02:04:55;2.50;;;2.40;;
29210;SDS011;16250;49.932;10.980;2022-11-20T02:07:25;3.67;;;3.47;;
29210;SDS011;16250;49.932;10.980;2022-11-20T02:09:52;2.92;;;2.72;;
29210;SDS011;16250;49.932;10.980;2022-11-20T02:12:18;1.80;;;1.80;;
29210;SDS011;16250;49.932;10.980;2022-11-20T02:15:02;2.83;;;2.72;;
29210;SDS011;16250;49.932;10.980;2022-11-20T02:17:28;2.53;;;2.42;;
29210;SDS011;16250;49.932;10.980;2022-11-20T02:19:53;3.90;;;3.67;;
29210;SDS011;16250;49.932;10.980;2022-11-20T02:22:20;2.45;;;2.35;;
29210;SDS011;16250;49.932;10.980;2022-11-20T02:24:53;1.85;;;1.85;;
29210;SDS011;16250;49.932;10.980;2022-11-20T02:27:19;3.35;;;3.15;;
29210;SDS011;16250;49.932;10.980;2022-11-20T02:32:31;2.15;;;2.13;;
29210;SDS011;16250;49.932;10.980;2022-11-20T02:34:58;3.50;;;3.40;;
29210;SDS011;16250;49.932;10.980;2022-11-20T02:37:36;3.35;;;3.08;;
29210;SDS011;16250;49.932;10.980;2022-11-20T02:40:05;1.98;;;1.98;;
29210;SDS011;16250;49.932;10.980;2022-11-20T02:42:31;4.30;;;3.53;;
29210;SDS011;16250;49.932;10.980;2022-11-20T02:44:56;2.50;;;2.40;;
29210;SDS011;16250;49.932;10.980;2022-11-20T02:47:22;2.63;;;2.53;;
29210;SDS011;16250;49.932;10.980;2022-11-20T02:49:47;2.85;;;2.75;;
29210;SDS011;16250;49.932;10.980;2022-11-20T02:52:13;2.55;;;2.45;;
29210;SDS011;16250;49.932;10.980;2022-11-20T02:54:38;2.88;;;2.78;;
29210;SDS011;16250;49.932;10.980;2022-11-20T02:57:04;2.40;;;2.30;;
29210;SDS011;16250;49.932;10.980;2022-11-20T02:59:29;4.82;;;4.63;;
29210;SDS011;16250;49.932;10.980;2022-11-20T03:01:55;2.45;;;2.35;;
29210;SDS011;16250;49.932;10.980;2022-11-20T03:04:20;2.00;;;2.00;;
29210;SDS011;16250;49.932;10.980;2022-11-20T03:06:46;2.40;;;2.30;;
29210;SDS011;16250;49.932;10.980;2022-11-20T03:09:12;3.65;;;3.55;;
29210;SDS011;16250;49.932;10.980;2022-11-20T03:11:37;2.20;;;2.15;;
29210;SDS011;16250;49.932;10.980;2022-11-20T03:14:04;4.05;;;3.13;;
29210;SDS011;16250;49.932;10.980;2022-11-20T03:16:30;5.45;;;5.15;;
29210;SDS011;16250;49.932;10.980;2022-11-20T03:18:56;2.95;;;2.85;;
29210;SDS011;16250;49.932;10.980;2022-11-20T03:21:22;2.42;;;2.33;;
29210;SDS011;16250;49.932;10.980;2022-11-20T03:23:47;2.40;;;2.30;;
29210;SDS011;16250;49.932;10.980;2022-11-20T03:26:17;2.80;;;2.70;;
29210;SDS011;16250;49.932;10.980;2022-11-20T03:28:49;6.40;;;6.10;;
29210;SDS011;16250;49.932;10.980;2022-11-20T03:31:33;3.42;;;3.30;;
29210;SDS011;16250;49.932;10.980;2022-11-20T03:34:03;3.42;;;3.33;;
29210;SDS011;16250;49.932;10.980;2022-11-20T03:36:29;2.42;;;2.33;;
29210;SDS011;16250;49.932;10.980;2022-11-20T03:38:55;4.63;;;4.43;;
29210;SDS011;16250;49.932;10.980;2022-11-20T03:41:25;2.58;;;2.47;;
29210;SDS011;16250;49.932;10.980;2022-11-20T03:43:54;2.17;;;2.13;;
29210;SDS011;16250;49.932;10.980;2022-11-20T03:46:21;3.20;;;3.10;;
29210;SDS011;16250;49.932;10.980;2022-11-20T03:48:48;2.60;;;2.50;;
29210;SDS011;16250;49.932;10.980;2022-11-20T03:51:15;3.25;;;3.10;;
29210;SDS011;16250;49.932;10.980;2022-11-20T03:53:45;9.73;;;9.07;;
29210;SDS011;16250;49.932;10.980;2022-11-20T03:56:12;3.30;;;3.20;;
29210;SDS011;16250;49.932;10.980;2022-11-20T03:58:39;2.60;;;2.50;;
29210;SDS011;16250;49.932;10.980;2022-11-20T04:01:09;2.28;;;2.17;;
29210;SDS011;16250;49.932;10.980;2022-11-20T04:03:40;1.90;;;1.90;;
29210;SDS011;16250;49.932;10.980;2022-11-20T04:06:08;5.18;;;4.40;;
29210;SDS011;16250;49.932;10.980;2022-11-20T04:08:35;2.40;;;2.30;;
29210;SDS011;16250;49.932;10.980;2022-11-20T04:11:08;3.97;;;3.67;;
29210;SDS011;16250;49.932;10.980;2022-11-20T04:13:40;6.07;;;5.53;;
29210;SDS011;16250;49.932;10.980;2022-11-20T04:16:07;2.95;;;2.85;;
29210;SDS011;16250;49.932;10.980;2022-11-20T04:18:34;3.05;;;2.95;;
29210;SDS011;16250;49.932;10.980;2022-11-20T04:21:00;10.07;;;8.68;;
29210;SDS011;16250;49.932;10.980;2022-11-20T04:23:26;3.80;;;3.53;;
29210;SDS011;16250;49.932;10.980;2022-11-20T04:25:52;2.50;;;2.40;;
29210;SDS011;16250;49.932;10.980;2022-11-20T04:28:18;2.90;;;2.80;;
29210;SDS011;16250;49.932;10.980;2022-11-20T04:30:43;3.08;;;2.97;;
29210;SDS011;16250;49.932;10.980;2022-11-20T04:33:09;5.60;;;5.07;;
29210;SDS011;16250;49.932;10.980;2022-11-20T04:35:35;2.80;;;2.70;;
29210;SDS011;16250;49.932;10.980;2022-11-20T04:38:01;4.07;;;2.97;;
29210;SDS011;16250;49.932;10.980;2022-11-20T04:40:30;3.53;;;3.42;;
29210;SDS011;16250;49.932;10.980;2022-11-20T04:42:55;2.88;;;2.78;;
29210;SDS011;16250;49.932;10.980;2022-11-20T04:45:22;7.32;;;6.45;;
29210;SDS011;16250;49.932;10.980;2022-11-20T04:47:48;2.60;;;2.50;;
29210;SDS011;16250;49.932;10.980;2022-11-20T04:50:13;2.85;;;2.75;;
29210;SDS011;16250;49.932;10.980;2022-11-20T04:52:39;4.20;;;4.03;;
29210;SDS011;16250;49.932;10.980;2022-11-20T04:55:05;2.70;;;2.60;;
29210;SDS011;16250;49.932;10.980;2022-11-20T04:57:31;3.38;;;3.28;;
29210;SDS011;16250;49.932;10.980;2022-11-20T04:59:56;2.60;;;2.50;;
29210;SDS011;16250;49.932;10.980;2022-11-20T05:02:22;2.50;;;2.40;;
29210;SDS011;16250;49.932;10.980;2022-11-20T05:04:48;2.97;;;2.88;;
29210;SDS011;16250;49.932;10.980;2022-11-20T05:07:13;2.92;;;2.83;;
29210;SDS011;16250;49.932;10.980;2022-11-20T05:09:39;5.13;;;4.88;;
29210;SDS011;16250;49.932;10.980;2022-11-20T05:12:06;2.95;;;2.85;;
29210;SDS011;16250;49.932;10.980;2022-11-20T05:14:33;2.58;;;2.47;;
29210;SDS011;16250;49.932;10.980;2022-11-20T05:16:58;2.95;;;2.85;;
29210;SDS011;16250;49.932;10.980;2022-11-20T05:19:24;3.35;;;3.25;;
29210;SDS011;16250;49.932;10.980;2022-11-20T05:21:49;4.55;;;4.35;;
29210;SDS011;16250;49.932;10.980;2022-11-20T05:24:15;2.83;;;2.72;;
29210;SDS011;16250;49.932;10.980;2022-11-20T05:26:40;2.92;;;2.83;;
29210;SDS011;16250;49.932;10.980;2022-11-20T05:29:06;3.13;;;3.03;;
29210;SDS011;16250;49.932;10.980;2022-11-20T05:31:31;2.55;;;2.45;;
29210;SDS011;16250;49.932;10.980;2022-11-20T05:33:57;5.00;;;4.80;;
29210;SDS011;16250;49.932;10.980;2022-11-20T05:36:23;3.53;;;3.42;;
29210;SDS011;16250;49.932;10.980;2022-11-20T05:38:48;4.00;;;3.78;;
29210;SDS011;16250;49.932;10.980;2022-11-20T05:41:15;2.83;;;2.72;;
29210;SDS011;16250;49.932;10.980;2022-11-20T05:43:43;3.35;;;3.25;;
29210;SDS011;16250;49.932;10.980;2022-11-20T05:46:10;3.90;;;3.80;;
29210;SDS011;16250;49.932;10.980;2022-11-20T05:48:38;2.97;;;2.88;;
29210;SDS011;16250;49.932;10.980;2022-11-20T05:51:05;2.65;;;2.55;;
29210;SDS011;16250;49.932;10.980;2022-11-20T05:53:33;3.63;;;3.53;;
29210;SDS011;16250;49.932;10.980;2022-11-20T05:55:59;2.40;;;2.30;;
29210;SDS011;16250;49.932;10.980;2022-11-20T05:58:26;5.07;;;4.88;;
29210;SDS011;16250;49.932;10.980;2022-11-20T06:00:52;2.70;;;2.60;;
29210;SDS011;16250;49.932;10.980;2022-11-20T06:03:18;2.67;;;2.58;;
29210;SDS011;16250;49.932;10.980;2022-11-20T06:05:44;3.50;;;3.40;;
29210;SDS011;16250;49.932;10.980;2022-11-20T06:08:09;3.10;;;3.00;;
29210;SDS011;16250;49.932;10.980;2022-11-20T06:10:35;8.45;;;4.63;;
29210;SDS011;16250;49.932;10.980;2022-11-20T06:13:01;3.85;;;3.75;;
29210;SDS011;16250;49.932;10.980;2022-11-20T06:15:26;3.08;;;2.97;;
29210;SDS011;16250;49.932;10.980;2022-11-20T06:17:52;13.80;;;4.95;;
29210;SDS011;16250;49.932;10.980;2022-11-20T06:20:19;4.18;;;3.78;;
29210;SDS011;16250;49.932;10.980;2022-11-20T06:22:45;3.30;;;3.20;;
29210;SDS011;16250;49.932;10.980;2022-11-20T06:25:10;2.92;;;2.83;;
29210;SDS011;16250;49.932;10.980;2022-11-20T06:27:36;5.47;;;5.25;;
29210;SDS011;16250;49.932;10.980;2022-11-20T06:30:02;3.70;;;3.50;;
29210;SDS011;16250;49.932;10.980;2022-11-20T06:32:28;3.10;;;3.00;;
29210;SDS011;16250;49.932;10.980;2022-11-20T06:34:53;3.40;;;3.30;;
29210;SDS011;16250;49.932;10.980;2022-11-20T06:37:19;2.92;;;2.83;;
29210;SDS011;16250;49.932;10.980;2022-11-20T06:39:44;2.88;;;2.78;;
29210;SDS011;16250;49.932;10.980;2022-11-20T06:42:10;9.00;;;5.43;;
29210;SDS011;16250;49.932;10.980;2022-11-20T06:44:35;9.18;;;5.32;;
29210;SDS011;16250;49.932;10.980;2022-11-20T06:47:01;3.97;;;3.88;;
29210;SDS011;16250;49.932;10.980;2022-11-20T06:49:27;6.18;;;5.88;;
29210;SDS011;16250;49.932;10.980;2022-11-20T06:51:52;3.75;;;3.65;;
29210;SDS011;16250;49.932;10.980;2022-11-20T06:54:18;3.15;;;3.05;;
29210;SDS011;16250;49.932;10.980;2022-11-20T06:56:46;3.08;;;2.97;;
29210;SDS011;16250;49.932;10.980;2022-11-20T06:59:12;2.92;;;2.83;;
29210;SDS011;16250;49.932;10.980;2022-11-20T07:01:38;3.50;;;3.40;;
29210;SDS011;16250;49.932;10.980;2022-11-20T07:04:03;2.60;;;2.50;;
29210;SDS011;16250;49.932;10.980;2022-11-20T07:06:29;3.80;;;3.70;;
29210;SDS011;16250;49.932;10.980;2022-11-20T07:08:55;3.33;;;3.22;;
29210;SDS011;16250;49.932;10.980;2022-11-20T07:11:20;3.03;;;2.92;;
29210;SDS011;16250;49.932;10.980;2022-11-20T07:13:46;4.55;;;4.38;;
29210;SDS011;16250;49.932;10.980;2022-11-20T07:16:12;3.45;;;3.35;;
29210;SDS011;16250;49.932;10.980;2022-11-20T07:18:37;5.55;;;5.13;;
29210;SDS011;16250;49.932;10.980;2022-11-20T07:21:03;4.78;;;4.57;;
29210;SDS011;16250;49.932;10.980;2022-11-20T07:23:31;3.78;;;3.67;;
29210;SDS011;16250;49.932;10.980;2022-11-20T07:25:57;3.20;;;3.10;;
29210;SDS011;16250;49.932;10.980;2022-11-20T07:28:23;4.65;;;4.45;;
29210;SDS011;16250;49.932;10.980;2022-11-20T07:30:52;3.97;;;3.85;;
29210;SDS011;16250;49.932;10.980;2022-11-20T07:33:18;4.25;;;4.13;;
29210;SDS011;16250;49.932;10.980;2022-11-20T07:35:44;3.72;;;3.63;;
29210;SDS011;16250;49.932;10.980;2022-11-20T07:38:10;3.53;;;3.42;;
29210;SDS011;16250;49.932;10.980;2022-11-20T07:40:36;4.97;;;4.82;;
29210;SDS011;16250;49.932;10.980;2022-11-20T07:43:01;5.60;;;5.40;;
29210;SDS011;16250;49.932;10.980;2022-11-20T07:45:27;4.55;;;4.38;;
29210;SDS011;16250;49.932;10.980;2022-11-20T07:47:52;3.33;;;3.22;;
29210;SDS011;16250;49.932;10.980;2022-11-20T07:50:19;3.75;;;3.65;;
29210;SDS011;16250;49.932;10.980;2022-11-20T07:52:45;4.05;;;3.95;;
29210;SDS011;16250;49.932;10.980;2022-11-20T07:55:10;9.23;;;8.50;;
29210;SDS011;16250;49.932;10.980;2022-11-20T07:57:36;7.80;;;7.10;;
29210;SDS011;16250;49.932;10.980;2022-11-20T08:00:02;8.98;;;8.57;;
29210;SDS011;16250;49.932;10.980;2022-11-20T08:02:29;3.80;;;3.70;;
29210;SDS011;16250;49.932;10.980;2022-11-20T08:04:54;6.80;;;6.50;;
29210;SDS011;16250;49.932;10.980;2022-11-20T08:07:20;3.78;;;3.67;;
29210;SDS011;16250;49.932;10.980;2022-11-20T08:09:45;3.58;;;3.47;;
29210;SDS011;16250;49.932;10.980;2022-11-20T08:12:20;3.35;;;3.25;;
29210;SDS011;16250;49.932;10.980;2022-11-20T08:15:05;3.38;;;3.28;;
29210;SDS011;16250;49.932;10.980;2022-11-20T08:17:31;3.38;;;3.28;;
29210;SDS011;16250;49.932;10.980;2022-11-20T08:19:57;5.07;;;4.88;;
29210;SDS011;16250;49.932;10.980;2022-11-20T08:22:22;3.80;;;3.70;;
29210;SDS011;16250;49.932;10.980;2022-11-20T08:24:48;3.75;;;3.65;;
29210;SDS011;16250;49.932;10.980;2022-11-20T08:27:14;4.93;;;4.75;;
29210;SDS011;16250;49.932;10.980;2022-11-20T08:29:39;7.97;;;7.47;;
29210;SDS011;16250;49.932;10.980;2022-11-20T08:32:05;4.10;;;4.00;;
29210;SDS011;16250;49.932;10.980;2022-11-20T08:34:30;3.63;;;3.53;;
29210;SDS011;16250;49.932;10.980;2022-11-20T08:36:56;4.43;;;4.22;;
29210;SDS011;16250;49.932;10.980;2022-11-20T08:39:21;5.30;;;5.10;;
29210;SDS011;16250;49.932;10.980;2022-11-20T08:41:47;3.72;;;3.63;;
29210;SDS011;16250;49.932;10.980;2022-11-20T08:44:12;3.50;;;3.40;;
29210;SDS011;16250;49.932;10.980;2022-11-20T08:46:39;3.53;;;3.42;;
29210;SDS011;16250;49.932;10.980;2022-11-20T08:49:06;3.92;;;3.83;;
29210;SDS011;16250;49.932;10.980;2022-11-20T08:51:34;4.50;;;4.30;;
29210;SDS011;16250;49.932;10.980;2022-11-20T08:54:00;4.47;;;4.38;;
29210;SDS011;16250;49.932;10.980;2022-11-20T08:56:26;4.63;;;4.43;;
29210;SDS011;16250;49.932;10.980;2022-11-20T08:58:52;4.15;;;4.05;;
29210;SDS011;16250;49.932;10.980;2022-11-20T09:01:18;4.20;;;4.10;;
29210;SDS011;16250;49.932;10.980;2022-11-20T09:03:45;4.20;;;4.10;;
29210;SDS011;16250;49.932;10.980;2022-11-20T09:06:11;3.85;;;3.75;;
29210;SDS011;16250;49.932;10.980;2022-11-20T09:08:37;3.88;;;3.78;;
29210;SDS011;16250;49.932;10.980;2022-11-20T09:11:03;3.65;;;3.55;;
29210;SDS011;16250;49.932;10.980;2022-11-20T09:13:29;3.95;;;3.85;;
29210;SDS011;16250;49.932;10.980;2022-11-20T09:18:21;3.53;;;3.42;;
29210;SDS011;16250;49.932;10.980;2022-11-20T09:20:47;4.53;;;4.32;;
29210;SDS011;16250;49.932;10.980;2022-11-20T09:23:13;4.80;;;4.63;;
29210;SDS011;16250;49.932;10.980;2022-11-20T09:25:39;7.15;;;6.88;;
29210;SDS011;16250;49.932;10.980;2022-11-20T09:28:05;5.05;;;4.82;;
29210;SDS011;16250;49.932;10.980;2022-11-20T09:30:31;4.95;;;4.75;;
29210;SDS011;16250;49.932;10.980;2022-11-20T09:32:56;3.92;;;3.83;;
29210;SDS011;16250;49.932;10.980;2022-11-20T09:35:22;7.32;;;6.90;;
29210;SDS011;16250;49.932;10.980;2022-11-20T09:37:48;3.95;;;3.85;;
29210;SDS011;16250;49.932;10.980;2022-11-20T09:40:20;5.15;;;4.95;;
29210;SDS011;16250;49.932;10.980;2022-11-20T09:42:52;4.38;;;4.20;;
29210;SDS011;16250;49.932;10.980;2022-11-20T09:45:33;3.80;;;3.70;;
29210;SDS011;16250;49.932;10.980;2022-11-20T09:48:18;11.65;;;11.10;;
29210;SDS011;16250;49.932;10.980;2022-11-20T09:50:57;5.30;;;5.10;;
29210;SDS011;16250;49.932;10.980;2022-11-20T09:53:51;13.55;;;7.22;;
29210;SDS011;16250;49.932;10.980;2022-11-20T09:56:19;7.78;;;7.30;;
29210;SDS011;16250;49.932;10.980;2022-11-20T09:58:49;4.20;;;4.10;;
29210;SDS011;16250;49.932;10.980;2022-11-20T10:01:17;5.97;;;5.78;;
29210;SDS011;16250;49.932;10.980;2022-11-20T10:04:31;4.78;;;4.63;;
29210;SDS011;16250;49.932;10.980;2022-11-20T10:06:37;4.65;;;4.55;;
29210;SDS011;16250;49.932;10.980;2022-11-20T10:09:35;4.82;;;4.60;;
29210;SDS011;16250;49.932;10.980;2022-11-20T10:20:48;5.50;;;5.13;;
29210;SDS011;16250;49.932;10.980;2022-11-20T10:26:06;6.25;;;5.97;;
29210;SDS011;16250;49.932;10.980;2022-11-20T10:28:51;5.13;;;4.93;;
29210;SDS011;16250;49.932;10.980;2022-11-20T10:31:35;6.07;;;5.80;;
29210;SDS011;16250;49.932;10.980;2022-11-20T10:34:05;4.35;;;4.25;;
29210;SDS011;16250;49.932;10.980;2022-11-20T10:36:44;6.00;;;5.60;;
29210;SDS011;16250;49.932;10.980;2022-11-20T10:39:37;4.63;;;4.53;;
29210;SDS011;16250;49.932;10.980;2022-11-20T10:42:11;6.15;;;5.95;;
29210;SDS011;16250;49.932;10.980;2022-11-20T10:44:42;7.78;;;7.35;;
29210;SDS011;16250;49.932;10.980;2022-11-20T10:47:26;7.90;;;7.57;;
29210;SDS011;16250;49.932;10.980;2022-11-20T10:49:53;8.13;;;7.65;;
29210;SDS011;16250;49.932;10.980;2022-11-20T10:52:28;10.18;;;9.23;;
29210;SDS011;16250;49.932;10.980;2022-11-20T10:55:24;6.95;;;6.38;;
29210;SDS011;16250;49.932;10.980;2022-11-20T10:58:10;5.60;;;5.40;;
29210;SDS011;16250;49.932;10.980;2022-11-20T11:00:50;5.90;;;5.63;;
29210;SDS011;16250;49.932;10.980;2022-11-20T11:03:28;6.03;;;5.82;;
29210;SDS011;16250;49.932;10.980;2022-11-20T11:06:10;5.70;;;5.50;;
29210;SDS011;16250;49.932;10.980;2022-11-20T11:08:38;6.20;;;6.00;;
29210;SDS011;16250;49.932;10.980;2022-11-20T11:13:51;8.43;;;8.00;;
29210;SDS011;16250;49.932;10.980;2022-11-20T11:16:19;13.23;;;12.65;;
29210;SDS011;16250;49.932;10.980;2022-11-20T11:18:49;6.03;;;5.82;;
29210;SDS011;16250;49.932;10.980;2022-11-20T11:21:22;8.60;;;8.07;;
29210;SDS011;16250;49.932;10.980;2022-11-20T11:23:57;12.05;;;9.07;;
29210;SDS011;16250;49.932;10.980;2022-11-20T11:26:25;5.47;;;5.28;;
29210;SDS011;16250;49.932;10.980;2022-11-20T11:31:23;11.88;;;10.68;;
29210;SDS011;16250;49.932;10.980;2022-11-20T11:34:15;5.53;;;5.32;;
29210;SDS011;16250;49.932;10.980;2022-11-20T11:36:40;6.45;;;6.25;;
29210;SDS011;16250;49.932;10.980;2022-11-20T11:39:11;6.45;;;6.25;;
29210;SDS011;16250;49.932;10.980;2022-11-20T11:41:38;6.85;;;6.57;;
29210;SDS011;16250;49.932;10.980;2022-11-20T11:44:18;5.68;;;5.47;;
29210;SDS011;16250;49.932;10.980;2022-11-20T11:47:26;7.18;;;6.88;;
29210;SDS011;16250;49.932;10.980;2022-11-20T11:52:36;6.93;;;6.72;;
29210;SDS011;16250;49.932;10.980;2022-11-20T11:55:09;6.72;;;6.32;;
29210;SDS011;16250;49.932;10.980;2022-11-20T11:57:47;6.50;;;6.30;;
29210;SDS011;16250;49.932;10.980;2022-11-20T12:00:21;7.15;;;6.95;;
29210;SDS011;16250;49.932;10.980;2022-11-20T12:03:00;7.07;;;6.85;;
29210;SDS011;16250;49.932;10.980;2022-11-20T12:05:44;7.83;;;7.53;;
29210;SDS011;16250;49.932;10.980;2022-11-20T12:11:13;6.45;;;6.25;;
29210;SDS011;16250;49.932;10.980;2022-11-20T12:13:53;7.97;;;7.68;;
29210;SDS011;16250;49.932;10.980;2022-11-20T12:16:23;7.45;;;7.15;;
29210;SDS011;16250;49.932;10.980;2022-11-20T12:18:50;7.35;;;7.10;;
29210;SDS011;16250;49.932;10.980;2022-11-20T12:21:18;8.35;;;8.05;;
29210;SDS011;16250;49.932;10.980;2022-11-20T12:30:35;7.57;;;7.28;;
29210;SDS011;16250;49.932;10.980;2022-11-20T12:38:26;5.97;;;5.78;;
29210;SDS011;16250;49.932;10.980;2022-11-20T12:42:01;7.15;;;6.95;;
29210;SDS011;16250;49.932;10.980;2022-11-20T12:50:28;8.90;;;8.18;;
29210;SDS011;16250;49.932;10.980;2022-11-20T12:55:36;6.55;;;6.35;;
29210;SDS011;16250;49.932;10.980;2022-11-20T12:58:40;6.78;;;6.55;;
29210;SDS011;16250;49.932;10.980;2022-11-20T13:01:26;6.32;;;6.13;;
29210;SDS011;16250;49.932;10.980;2022-11-20T13:04:16;7.65;;;7.35;;
29210;SDS011;16250;49.932;10.980;2022-11-20T13:07:03;7.68;;;7.38;;
29210;SDS011;16250;49.932;10.980;2022-11-20T13:09:33;9.10;;;8.70;;
29210;SDS011;16250;49.932;10.980;2022-11-20T13:12:06;7.10;;;6.85;;
29210;SDS011;16250;49.932;10.980;2022-11-20T13:17:24;7.63;;;7.32;;
29210;SDS011;16250;49.932;10.980;2022-11-20T13:20:05;6.72;;;6.45;;
29210;SDS011;16250;49.932;10.980;2022-11-20T13:22:44;6.00;;;5.80;;
29210;SDS011;16250;49.932;10.980;2022-11-20T13:25:31;6.75;;;6.55;;
29210;SDS011;16250;49.932;10.980;2022-11-20T13:27:59;6.53;;;6.32;;
29210;SDS011;16250;49.932;10.980;2022-11-20T13:30:28;9.18;;;8.65;;
29210;SDS011;16250;49.932;10.980;2022-11-20T13:33:03;7.30;;;7.00;;
29210;SDS011;16250;49.932;10.980;2022-11-20T13:35:35;7.05;;;6.78;;
29210;SDS011;16250;49.932;10.980;2022-11-20T13:38:08;5.88;;;5.68;;
29210;SDS011;16250;49.932;10.980;2022-11-20T13:40:36;7.20;;;6.90;;
29210;SDS011;16250;49.932;10.980;2022-11-20T13:43:08;7.10;;;6.90;;
29210;SDS011;16250;49.932;10.980;2022-11-20T13:45:41;6.32;;;6.10;;
29210;SDS011;16250;49.932;10.980;2022-11-20T13:48:23;7.82;;;7.53;;
29210;SDS011;16250;49.932;10.980;2022-11-20T13:50:55;7.63;;;7.32;;
29210;SDS011;16250;49.932;10.980;2022-11-20T13:59:21;7.80;;;7.50;;
29210;SDS011;16250;49.932;10.980;2022-11-20T14:01:56;7.65;;;7.35;;
29210;SDS011;16250;49.932;10.980;2022-11-20T14:04:25;7.32;;;7.03;;
29210;SDS011;16250;49.932;10.980;2022-11-20T14:06:55;8.38;;;8.07;;
29210;SDS011;16250;49.932;10.980;2022-11-20T14:09:48;9.45;;;9.05;;
29210;SDS011;16250;49.932;10.980;2022-11-20T14:12:18;9.30;;;8.77;;
29210;SDS011;16250;49.932;10.980;2022-11-20T14:14:50;6.75;;;6.55;;
29210;SDS011;16250;49.932;10.980;2022-11-20T14:17:33;6.38;;;6.18;;
29210;SDS011;16250;49.932;10.980;2022-11-20T14:20:11;6.80;;;6.60;;
29210;SDS011;16250;49.932;10.980;2022-11-20T14:22:39;7.03;;;6.82;;
29210;SDS011;16250;49.932;10.980;2022-11-20T14:27:39;6.78;;;6.57;;
29210;SDS011;16250;49.932;10.980;2022-11-20T14:32:40;7.68;;;7.38;;
29210;SDS011;16250;49.932;10.980;2022-11-20T14:35:08;8.48;;;8.18;;
29210;SDS011;16250;49.932;10.980;2022-11-20T14:37:38;9.52;;;9.13;;
29210;SDS011;16250;49.932;10.980;2022-11-20T14:40:20;7.82;;;7.53;;
29210;SDS011;16250;49.932;10.980;2022-11-20T14:42:51;8.38;;;8.07;;
29210;SDS011;16250;49.932;10.980;2022-11-20T14:45:17;8.50;;;8.20;;
29210;SDS011;16250;49.932;10.980;2022-11-20T14:47:43;8.25;;;7.95;;
29210;SDS011;16250;49.932;10.980;2022-11-20T14:50:14;8.10;;;7.78;;
29210;SDS011;16250;49.932;10.980;2022-11-20T14:53:06;6.95;;;6.75;;
29210;SDS011;16250;49.932;10.980;2022-11-20T14:55:36;8.63;;;8.32;;
29210;SDS011;16250;49.932;10.980;2022-11-20T14:58:19;9.52;;;9.23;;
29210;SDS011;16250;49.932;10.980;2022-11-20T15:03:22;8.20;;;7.90;;
29210;SDS011;16250;49.932;10.980;2022-11-20T15:05:49;8.35;;;8.05;;
29210;SDS011;16250;49.932;10.980;2022-11-20T15:08:15;8.35;;;8.05;;
29210;SDS011;16250;49.932;10.980;2022-11-20T15:10:45;7.75;;;7.45;;
29210;SDS011;16250;49.932;10.980;2022-11-20T15:13:13;8.40;;;8.10;;
29210;SDS011;16250;49.932;10.980;2022-11-20T15:15:49;7.25;;;7.05;;
29210;SDS011;16250;49.932;10.980;2022-11-20T15:18:18;8.10;;;7.80;;
29210;SDS011;16250;49.932;10.980;2022-11-20T15:20:46;7.30;;;7.10;;
29210;SDS011;16250;49.932;10.980;2022-11-20T15:23:13;8.18;;;7.88;;
29210;SDS011;16250;49.932;10.980;2022-11-20T15:25:40;8.25;;;7.95;;
29210;SDS011;16250;49.932;10.980;2022-11-20T15:28:15;7.65;;;7.35;;
29210;SDS011;16250;49.932;10.980;2022-11-20T15:30:41;8.50;;;8.20;;
29210;SDS011;16250;49.932;10.980;2022-11-20T15:33:08;9.35;;;9.05;;
29210;SDS011;16250;49.932;10.980;2022-11-20T15:35:34;8.57;;;8.27;;
29210;SDS011;16250;49.932;10.980;2022-11-20T15:38:00;9.43;;;8.80;;
29210;SDS011;16250;49.932;10.980;2022-11-20T15:40:25;13.35;;;11.98;;
29210;SDS011;16250;49.932;10.980;2022-11-20T15:42:51;9.43;;;9.13;;
29210;SDS011;16250;49.932;10.980;2022-11-20T15:45:32;7.60;;;7.32;;
29210;SDS011;16250;49.932;10.980;2022-11-20T15:48:16;8.85;;;8.55;;
29210;SDS011;16250;49.932;10.980;2022-11-20T15:53:21;10.32;;;9.93;;
29210;SDS011;16250;49.932;10.980;2022-11-20T15:55:47;7.70;;;7.40;;
29210;SDS011;16250;49.932;10.980;2022-11-20T15:58:13;8.65;;;8.35;;